createdAt,value
2022-08-09T00:01:57.577Z,8.50
2022-08-09T00:04:34.773Z,7.10
2022-08-09T00:07:10.597Z,6.95
2022-08-09T00:09:41.089Z,6.38
2022-08-09T00:12:22.854Z,7.07
2022-08-09T00:14:54.559Z,7.03
2022-08-09T00:18:09.289Z,7.18
2022-08-09T00:20:16.741Z,6.63
2022-08-09T00:22:47.381Z,7.00
2022-08-09T00:25:23.589Z,7.55
2022-08-09T00:28:04.035Z,8.98
2022-08-09T00:30:35.558Z,6.45
2022-08-09T00:33:05.469Z,7.13
2022-08-09T00:35:43.237Z,6.40
2022-08-09T00:40:54.722Z,7.32
2022-08-09T00:44:13.140Z,7.38
2022-08-09T00:46:55.579Z,7.40
2022-08-09T00:49:07.530Z,7.43
2022-08-09T00:51:42.694Z,7.43
2022-08-09T00:54:31.260Z,8.77
2022-08-09T00:57:08.811Z,8.20
2022-08-09T00:59:46.594Z,9.40
2022-08-09T01:02:26.805Z,7.80
2022-08-09T01:05:14.009Z,8.70
2022-08-09T01:07:59.707Z,6.93
2022-08-09T01:10:39.269Z,7.50
2022-08-09T01:13:22.123Z,7.65
2022-08-09T01:15:55.438Z,7.25
2022-08-09T01:21:24.783Z,8.45
2022-08-09T01:24:05.035Z,7.45
2022-08-09T01:26:59.375Z,7.95
2022-08-09T01:29:40.938Z,7.38
2022-08-09T01:32:34.069Z,7.35
2022-08-09T01:35:28.213Z,7.40
2022-08-09T01:38:10.473Z,7.50
2022-08-09T01:41:05.024Z,8.35
2022-08-09T01:43:50.657Z,7.85
2022-08-09T01:46:27.141Z,8.45
2022-08-09T01:49:09.468Z,7.95
2022-08-09T01:51:53.527Z,7.70
2022-08-09T01:57:10.059Z,7.65
2022-08-09T01:59:51.580Z,10.07
2022-08-09T02:02:31.035Z,9.25
2022-08-09T02:05:15.267Z,9.52
2022-08-09T02:08:40.464Z,9.40
2022-08-09T02:10:51.358Z,10.60
2022-08-09T02:13:37.613Z,9.45
2022-08-09T02:16:13.681Z,10.15
2022-08-09T02:18:47.658Z,10.55
2022-08-09T02:21:22.677Z,11.50
2022-08-09T02:23:57.520Z,11.43
2022-08-09T02:26:29.573Z,11.23
2022-08-09T02:29:04.489Z,10.77
2022-08-09T02:31:42.726Z,10.80
2022-08-09T02:34:25.756Z,10.77
2022-08-09T02:37:16.382Z,12.63
2022-08-09T02:40:01.325Z,13.07
2022-08-09T02:42:36.741Z,11.68
2022-08-09T02:45:12.127Z,12.35
2022-08-09T02:47:57.584Z,10.98
2022-08-09T02:50:38.205Z,11.75
2022-08-09T02:53:17.271Z,11.18
2022-08-09T02:56:01.040Z,11.95
2022-08-09T02:58:37.479Z,11.48
2022-08-09T03:01:10.970Z,11.52
2022-08-09T03:04:17.563Z,11.35
2022-08-09T03:06:36.195Z,13.02
2022-08-09T03:09:07.878Z,11.00
2022-08-09T03:12:09.906Z,10.98
2022-08-09T03:14:31.765Z,12.63
2022-08-09T03:17:05.516Z,12.05
2022-08-09T03:19:58.169Z,13.57
2022-08-09T03:22:31.528Z,12.30
2022-08-09T03:25:06.211Z,12.60
2022-08-09T03:27:55.365Z,11.75
2022-08-09T03:30:33.220Z,13.13
2022-08-09T03:33:18.531Z,12.07
2022-08-09T03:36:15.865Z,11.77
2022-08-09T03:38:44.915Z,12.00
2022-08-09T03:41:18.446Z,12.52
2022-08-09T03:44:03.624Z,13.02
2022-08-09T03:46:51.894Z,13.75
2022-08-09T03:49:23.966Z,12.65
2022-08-09T03:52:03.485Z,12.40
2022-08-09T03:54:38.845Z,12.70
2022-08-09T03:57:20.304Z,13.10
2022-08-09T03:59:55.432Z,12.27
2022-08-09T04:02:28.989Z,12.82
2022-08-09T04:05:06.574Z,13.57
2022-08-09T04:07:47.163Z,11.48
2022-08-09T04:10:28.526Z,12.77
2022-08-09T04:13:04.126Z,13.60
2022-08-09T04:15:52.121Z,11.70
2022-08-09T04:18:25.050Z,12.20
2022-08-09T04:20:55.056Z,11.52
2022-08-09T04:23:26.068Z,12.90
2022-08-09T04:25:56.618Z,13.02
2022-08-09T04:28:34.099Z,12.52
2022-08-09T04:31:10.123Z,12.15
2022-08-09T04:33:47.704Z,11.73
2022-08-09T04:36:26.184Z,11.50
2022-08-09T04:38:59.752Z,13.57
2022-08-09T04:41:32.131Z,12.23
2022-08-09T04:44:09.637Z,12.05
2022-08-09T04:46:58.454Z,11.60
2022-08-09T04:49:53.631Z,13.50
2022-08-09T04:52:27.752Z,13.40
2022-08-09T04:55:02.406Z,12.75
2022-08-09T04:57:54.387Z,11.55
2022-08-09T05:00:24.075Z,13.52
2022-08-09T05:02:54.188Z,14.23
2022-08-09T05:05:32.263Z,11.48
2022-08-09T05:08:15.130Z,9.93
2022-08-09T05:10:46.355Z,11.82
2022-08-09T05:13:15.870Z,10.77
2022-08-09T05:15:48.039Z,11.88
2022-08-09T05:18:37.643Z,9.48
2022-08-09T05:21:09.768Z,11.88
2022-08-09T05:23:54.698Z,10.00
2022-08-09T05:26:36.126Z,11.80
2022-08-09T05:29:17.812Z,12.35
2022-08-09T05:31:57.256Z,12.05
2022-08-09T05:34:31.115Z,11.02
2022-08-09T05:37:06.694Z,12.02
2022-08-09T05:39:42.884Z,10.68
2022-08-09T05:42:20.634Z,10.60
2022-08-09T05:44:55.493Z,11.07
2022-08-09T05:47:30.205Z,9.82
2022-08-09T05:50:25.968Z,9.13
2022-08-09T05:52:54.858Z,8.98
2022-08-09T05:55:25.300Z,9.00
2022-08-09T05:57:58.509Z,9.55
2022-08-09T06:00:30.296Z,9.07
2022-08-09T06:03:02.776Z,7.85
2022-08-09T06:08:25.773Z,8.75
2022-08-09T06:10:58.328Z,8.38
2022-08-09T06:13:33.641Z,8.60
2022-08-09T06:16:05.503Z,8.40
2022-08-09T06:18:36.489Z,8.25
2022-08-09T06:21:08.095Z,10.82
2022-08-09T06:23:55.259Z,7.80
2022-08-09T06:26:28.898Z,8.15
2022-08-09T06:29:04.984Z,7.38
2022-08-09T06:31:39.748Z,7.43
2022-08-09T06:34:26.067Z,7.88
2022-08-09T06:37:00.150Z,9.35
2022-08-09T06:39:48.524Z,6.38
2022-08-09T06:42:24.658Z,7.35
2022-08-09T06:45:00.495Z,6.72
2022-08-09T06:47:57.975Z,7.53
2022-08-09T06:50:31.922Z,9.20
2022-08-09T06:53:01.815Z,8.88
2022-08-09T06:55:33.202Z,7.15
2022-08-09T06:58:04.678Z,7.85
2022-08-09T07:00:54.166Z,5.70
2022-08-09T07:03:29.013Z,5.30
2022-08-09T07:06:04.209Z,5.80
2022-08-09T07:08:37.415Z,6.40
2022-08-09T07:11:12.738Z,7.38
2022-08-09T07:14:04.830Z,5.45
2022-08-09T07:16:44.063Z,6.95
2022-08-09T07:19:23.374Z,5.40
2022-08-09T07:21:57.783Z,5.47
2022-08-09T07:24:40.551Z,6.25
2022-08-09T07:27:33.651Z,5.15
2022-08-09T07:30:05.749Z,6.88
2022-08-09T07:32:38.132Z,5.70
2022-08-09T07:35:14.806Z,4.53
2022-08-09T07:37:47.921Z,6.05
2022-08-09T07:40:27.033Z,8.05
2022-08-09T07:43:04.136Z,6.35
2022-08-09T07:45:44.321Z,4.20
2022-08-09T07:48:22.440Z,5.15
2022-08-09T07:51:03.011Z,4.00
2022-08-09T07:54:06.921Z,3.35
2022-08-09T07:56:30.816Z,4.93
2022-08-09T07:59:01.059Z,4.60
2022-08-09T08:01:32.993Z,7.35
2022-08-09T08:04:10.680Z,6.22
2022-08-09T08:06:55.935Z,3.42
2022-08-09T08:09:38.697Z,5.60
2022-08-09T08:12:27.682Z,4.55
2022-08-09T08:14:59.786Z,2.58
2022-08-09T08:17:52.376Z,4.13
2022-08-09T08:20:30.362Z,3.78
2022-08-09T08:23:06.918Z,3.20
2022-08-09T08:25:50.135Z,4.82
2022-08-09T08:28:25.911Z,4.22
2022-08-09T08:31:10.540Z,4.07
2022-08-09T08:33:53.514Z,4.72
2022-08-09T08:36:28.963Z,2.73
2022-08-09T08:39:00.311Z,4.07
2022-08-09T08:41:50.653Z,3.47
2022-08-09T08:44:28.723Z,3.67
2022-08-09T08:47:04.775Z,3.88
2022-08-09T08:49:47.901Z,2.83
2022-08-09T08:55:23.035Z,4.53
2022-08-09T08:57:56.851Z,4.75
2022-08-09T09:00:30.120Z,3.28
2022-08-09T09:03:08.675Z,3.20
2022-08-09T09:05:59.794Z,2.42
2022-08-09T09:08:40.751Z,3.88
2022-08-09T09:11:13.692Z,3.28
2022-08-09T09:13:57.959Z,3.13
2022-08-09T09:16:33.672Z,2.80
2022-08-09T09:19:22.499Z,3.13
2022-08-09T09:24:46.267Z,6.38
2022-08-09T09:28:04.074Z,5.68
2022-08-09T09:30:34.553Z,3.85
2022-08-09T09:33:16.948Z,5.70
2022-08-09T09:36:02.045Z,2.80
2022-08-09T09:38:47.326Z,2.25
2022-08-09T09:41:49.358Z,5.63
2022-08-09T09:44:31.691Z,3.15
2022-08-09T09:47:11.033Z,2.45
2022-08-09T09:50:06.895Z,3.10
2022-08-09T09:52:36.622Z,3.67
2022-08-09T09:55:28.469Z,1.83
2022-08-09T09:58:16.878Z,3.53
2022-08-09T10:00:53.788Z,4.82
2022-08-09T10:03:44.807Z,4.63
2022-08-09T10:06:32.042Z,2.05
2022-08-09T10:09:12.042Z,4.45
2022-08-09T10:12:12.060Z,2.05
2022-08-09T10:14:48.050Z,4.55
2022-08-09T10:17:39.004Z,2.35
2022-08-09T10:23:22.629Z,3.60
2022-08-09T10:26:08.126Z,4.97
2022-08-09T10:28:45.539Z,2.90
2022-08-09T10:34:32.875Z,4.57
2022-08-09T10:37:03.663Z,2.25
2022-08-09T10:39:49.292Z,2.47
2022-08-09T10:42:19.440Z,2.67
2022-08-09T10:44:55.142Z,4.53
2022-08-09T10:48:16.871Z,3.97
2022-08-09T10:51:09.266Z,3.20
2022-08-09T10:53:54.937Z,1.67
2022-08-09T10:56:28.398Z,3.58
2022-08-09T10:59:03.389Z,2.78
2022-08-09T11:03:18.762Z,7.13
2022-08-09T11:04:35.374Z,2.67
2022-08-09T11:07:58.267Z,2.55
2022-08-09T11:11:00.579Z,2.70
2022-08-09T11:13:50.826Z,3.58
2022-08-09T11:16:39.336Z,2.88
2022-08-09T11:19:11.489Z,3.25
2022-08-09T11:22:10.698Z,3.72
2022-08-09T11:25:10.361Z,2.03
2022-08-09T11:28:03.580Z,3.57
2022-08-09T11:30:38.100Z,2.42
2022-08-09T11:33:27.845Z,3.10
2022-08-09T11:36:00.965Z,2.70
2022-08-09T11:38:35.358Z,3.28
2022-08-09T11:41:38.596Z,2.03
2022-08-09T11:44:13.508Z,2.28
2022-08-09T11:46:57.003Z,9.13
2022-08-09T11:50:53.893Z,3.47
2022-08-09T11:54:01.123Z,2.13
2022-08-09T11:56:42.652Z,3.08
2022-08-09T11:59:33.612Z,2.80
2022-08-09T12:02:37.350Z,2.35
2022-08-09T12:04:58.163Z,2.58
2022-08-09T12:07:41.353Z,3.97
2022-08-09T12:10:14.407Z,2.50
2022-08-09T12:14:11.078Z,1.75
2022-08-09T12:16:06.221Z,2.50
2022-08-09T12:18:56.300Z,1.95
2022-08-09T12:21:38.569Z,2.92
2022-08-09T12:24:12.580Z,3.70
2022-08-09T12:28:58.297Z,2.28
2022-08-09T12:30:04.319Z,2.45
2022-08-09T12:32:48.704Z,2.75
2022-08-09T12:35:21.573Z,4.63
2022-08-09T12:37:53.890Z,4.13
2022-08-09T12:40:27.251Z,6.30
2022-08-09T12:42:58.138Z,3.13
2022-08-09T12:45:33.642Z,4.87
2022-08-09T12:48:07.988Z,2.55
2022-08-09T12:50:52.151Z,3.95
2022-08-09T12:56:43.788Z,5.10
2022-08-09T12:59:57.974Z,2.25
2022-08-09T13:02:24.476Z,3.92
2022-08-09T13:05:02.948Z,1.75
2022-08-09T13:07:50.188Z,3.38
2022-08-09T13:10:21.028Z,3.47
2022-08-09T13:13:10.959Z,3.00
2022-08-09T13:15:57.157Z,1.75
2022-08-09T13:18:30.466Z,3.42
2022-08-09T13:22:33.073Z,2.50
2022-08-09T13:24:17.552Z,4.47
2022-08-09T13:26:46.106Z,4.10
2022-08-09T13:29:28.631Z,3.97
2022-08-09T13:32:25.499Z,3.83
2022-08-09T13:34:58.732Z,5.40
2022-08-09T13:37:51.697Z,2.17
2022-08-09T13:41:55.140Z,2.53
2022-08-09T13:43:11.578Z,6.57
2022-08-09T13:46:42.598Z,6.00
2022-08-09T13:48:35.184Z,2.80
2022-08-09T13:51:08.954Z,6.65
2022-08-09T13:53:43.157Z,3.30
2022-08-09T13:56:14.345Z,3.75
2022-08-09T13:58:47.984Z,5.00
2022-08-09T14:01:56.309Z,4.25
2022-08-09T14:04:11.593Z,4.45
2022-08-09T14:06:43.821Z,3.85
2022-08-09T14:09:16.419Z,4.25
2022-08-09T14:11:47.783Z,2.38
2022-08-09T14:16:57.319Z,3.97
2022-08-09T14:19:30.320Z,3.72
2022-08-09T14:22:05.925Z,3.35
2022-08-09T14:24:35.578Z,2.28
2022-08-09T14:27:19.850Z,8.00
2022-08-09T14:30:34.621Z,3.78
2022-08-09T14:32:40.251Z,3.42
2022-08-09T14:35:12.929Z,4.47
2022-08-09T14:38:02.172Z,3.55
2022-08-09T14:40:38.965Z,3.13
2022-08-09T14:43:22.950Z,1.83
2022-08-09T14:46:54.155Z,2.63
2022-08-09T14:48:42.190Z,2.60
2022-08-09T14:51:15.357Z,6.63
2022-08-09T14:53:52.254Z,3.03
2022-08-09T14:56:22.263Z,2.53
2022-08-09T14:58:56.578Z,2.97
2022-08-09T15:01:27.638Z,3.30
2022-08-09T15:03:57.358Z,3.70
2022-08-09T15:06:28.743Z,1.50
2022-08-09T15:09:01.059Z,3.85
2022-08-09T15:11:30.675Z,1.75
2022-08-09T15:14:04.862Z,1.77
2022-08-09T15:16:43.122Z,3.00
2022-08-09T15:19:17.940Z,2.80
2022-08-09T15:21:55.998Z,2.42
2022-08-09T15:24:32.366Z,4.22
2022-08-09T15:27:01.985Z,2.90
2022-08-09T15:30:58.561Z,3.35
2022-08-09T15:32:28.862Z,4.13
2022-08-09T15:35:01.120Z,5.18
2022-08-09T15:37:56.299Z,1.58
2022-08-09T15:40:31.767Z,4.10
2022-08-09T15:43:03.239Z,2.67
2022-08-09T15:45:51.661Z,2.20
2022-08-09T15:48:28.350Z,1.40
2022-08-09T15:50:59.422Z,2.45
2022-08-09T15:54:04.527Z,4.25
2022-08-09T15:56:21.348Z,1.70
2022-08-09T15:59:00.021Z,1.30
2022-08-09T16:01:35.455Z,3.17
2022-08-09T16:04:06.097Z,1.60
2022-08-09T16:06:44.517Z,13.75
2022-08-09T16:09:32.577Z,1.95
2022-08-09T16:12:12.072Z,2.28
2022-08-09T16:14:45.959Z,2.00
2022-08-09T16:17:17.216Z,3.47
2022-08-09T16:19:49.250Z,2.10
2022-08-09T16:22:48.995Z,1.38
2022-08-09T16:25:36.763Z,2.85
2022-08-09T16:28:12.049Z,2.45
2022-08-09T16:30:44.396Z,2.22
2022-08-09T16:33:16.001Z,3.00
2022-08-09T16:35:56.634Z,4.53
2022-08-09T16:40:59.339Z,3.25
2022-08-09T16:43:40.639Z,2.10
2022-08-09T16:46:12.352Z,1.73
2022-08-09T16:48:59.272Z,2.95
2022-08-09T16:51:31.603Z,2.58
2022-08-09T16:54:27.533Z,2.50
2022-08-09T16:56:54.457Z,2.45
2022-08-09T16:59:27.399Z,4.90
2022-08-09T17:02:04.385Z,2.55
2022-08-09T17:04:35.101Z,2.20
2022-08-09T17:08:45.393Z,3.17
2022-08-09T17:10:01.791Z,3.15
2022-08-09T17:12:35.561Z,4.90
2022-08-09T17:23:14.798Z,4.22
2022-08-09T17:25:52.999Z,4.22
2022-08-09T17:28:22.965Z,3.42
2022-08-09T17:30:54.347Z,3.75
2022-08-09T17:33:24.003Z,1.90
2022-08-09T17:53:55.775Z,2.17
2022-08-09T18:47:08.201Z,2.13
2022-08-09T18:49:46.844Z,2.35
2022-08-09T19:08:19.698Z,4.00
2022-08-09T20:58:58.645Z,3.80
2022-08-09T21:01:34.444Z,4.13
2022-08-09T21:05:52.882Z,8.38
2022-08-09T21:07:14.421Z,6.22
2022-08-09T21:09:56.584Z,6.18
2022-08-09T21:12:32.392Z,3.78
2022-08-09T21:15:03.725Z,3.40
2022-08-09T21:18:11.970Z,3.95
2022-08-09T21:20:26.332Z,3.95
2022-08-09T21:22:56.178Z,3.65
2022-08-09T21:25:56.154Z,4.25
2022-08-09T21:28:36.206Z,6.25
2022-08-09T21:31:13.576Z,5.70
2022-08-09T21:33:51.231Z,4.72
2022-08-09T21:36:30.508Z,4.18
2022-08-09T21:39:00.723Z,3.60
2022-08-09T21:42:04.927Z,4.35
2022-08-09T21:44:32.879Z,7.70
2022-08-09T21:47:09.013Z,5.30
2022-08-09T21:49:42.905Z,6.10
2022-08-09T21:52:17.612Z,5.63
2022-08-09T21:54:50.868Z,3.38
2022-08-09T21:57:39.190Z,5.00
2022-08-09T22:00:26.742Z,5.43
2022-08-09T22:03:06.671Z,3.72
2022-08-09T22:05:42.055Z,5.43
2022-08-09T22:08:15.198Z,6.40
2022-08-09T22:13:37.090Z,5.28
2022-08-09T22:16:10.008Z,5.35
2022-08-09T22:18:53.101Z,4.07
2022-08-09T22:21:27.316Z,3.70
2022-08-09T22:24:16.596Z,4.10
2022-08-09T22:26:51.007Z,8.65
2022-08-09T22:29:28.443Z,3.85
2022-08-09T22:32:06.927Z,3.70
2022-08-09T22:34:59.354Z,4.45
2022-08-09T22:37:40.261Z,5.10
2022-08-09T22:40:18.300Z,3.90
2022-08-09T22:42:50.169Z,5.10
2022-08-09T22:48:15.792Z,6.47
2022-08-09T22:48:34.971Z,6.38
2022-08-09T22:51:10.908Z,5.93
2022-08-09T22:54:02.007Z,7.60
2022-08-09T22:56:33.981Z,5.32
2022-08-09T22:59:57.273Z,4.68
2022-08-09T23:01:56.230Z,5.20
2022-08-09T23:04:27.973Z,5.57
2022-08-09T23:08:21.227Z,5.18
2022-08-09T23:10:10.361Z,5.13
2022-08-09T23:12:40.045Z,4.75
2022-08-09T23:15:11.089Z,7.25
2022-08-09T23:17:40.648Z,7.00
2022-08-09T23:20:12.710Z,5.38
2022-08-09T23:22:42.302Z,5.78
2022-08-09T23:25:12.204Z,4.50
2022-08-09T23:28:14.483Z,5.88
2022-08-09T23:30:31.538Z,4.95
2022-08-09T23:33:01.182Z,5.00
2022-08-09T23:35:32.100Z,4.72
2022-08-09T23:38:22.862Z,7.45
2022-08-09T23:40:52.429Z,5.90
2022-08-09T23:43:22.492Z,6.60
2022-08-09T23:45:52.037Z,4.30
2022-08-09T23:48:21.636Z,6.03
2022-08-09T23:50:52.521Z,5.60
2022-08-09T23:53:22.074Z,5.03
2022-08-09T23:58:29.711Z,6.18
